Time;durP1;ratioP1;P1;durP2;ratioP2;P2;SDS_P1;SDS_P2;PMS_P1;PMS_P2;Temp;Humidity;BMP_temperature;BMP_pressure;BME280_temperature;BME280_humidity;BME280_pressure;Samples;Min_cycle;Max_cycle;Signal;HPM_P1;HPM_P2
2021/05/02 00:00:38;;;;;;;29.13;19.43;;;10.20;99.90;;;;;;6088793;23;20412;-68
2021/05/02 00:03:06;;;;;;;26.20;19.70;;;10.20;99.90;;;;;;6090983;23;20435;-69
2021/05/02 00:05:34;;;;;;;28.03;19.33;;;10.20;99.90;;;;;;6101152;23;20427;-69
2021/05/02 00:08:02;;;;;;;27.90;19.83;;;10.10;99.90;;;;;;6091261;23;20492;-68
2021/05/02 00:10:31;;;;;;;26.43;19.00;;;10.10;99.90;;;;;;6090762;23;20430;-70
2021/05/02 00:12:59;;;;;;;29.90;20.33;;;10.00;99.90;;;;;;6091162;23;20420;-69
2021/05/02 00:15:26;;;;;;;29.83;20.10;;;10.00;99.90;;;;;;6090900;23;20469;-68
2021/05/02 00:17:53;;;;;;;30.47;20.90;;;10.00;99.90;;;;;;6090651;23;20413;-70
2021/05/02 00:20:22;;;;;;;27.97;19.90;;;10.00;99.90;;;;;;6089434;23;20480;-69
2021/05/02 00:22:50;;;;;;;29.03;19.40;;;9.90;99.90;;;;;;6090470;23;20420;-69
2021/05/02 00:25:19;;;;;;;29.23;20.60;;;9.90;99.90;;;;;;6090845;23;20483;-69
2021/05/02 00:27:45;;;;;;;31.30;21.10;;;9.90;99.90;;;;;;6090878;23;20471;-69
2021/05/02 00:30:13;;;;;;;25.97;19.97;;;9.90;99.90;;;;;;6100843;23;20474;-69
2021/05/02 00:32:45;;;;;;;28.70;19.80;;;9.90;99.90;;;;;;6090285;23;20674;-69
2021/05/02 00:35:12;;;;;;;29.80;20.60;;;9.80;99.90;;;;;;6090498;23;20727;-69
2021/05/02 00:37:41;;;;;;;32.03;20.73;;;9.80;99.90;;;;;;6100058;23;20419;-70
2021/05/02 00:40:11;;;;;;;30.37;21.43;;;9.80;99.90;;;;;;6090326;23;20408;-69
2021/05/02 00:42:42;;;;;;;33.27;22.27;;;9.80;99.90;;;;;;6089708;23;20416;-69
2021/05/02 00:45:09;;;;;;;30.03;20.20;;;9.80;99.90;;;;;;6090523;23;20397;-68
2021/05/02 00:47:38;;;;;;;32.10;20.87;;;9.80;99.90;;;;;;6088084;23;20444;-68
2021/05/02 00:50:09;;;;;;;31.10;20.93;;;9.70;99.90;;;;;;6086869;23;20431;-69
2021/05/02 00:52:45;;;;;;;31.30;21.60;;;9.70;99.90;;;;;;6088397;23;20416;-69
2021/05/02 00:55:14;;;;;;;33.90;21.97;;;9.70;99.90;;;;;;6097042;23;20408;-68
2021/05/02 00:57:54;;;;;;;33.13;21.80;;;9.70;99.90;;;;;;6089073;23;20442;-69
2021/05/02 01:00:22;;;;;;;33.00;22.03;;;9.70;99.90;;;;;;6088477;23;20746;-69
2021/05/02 01:03:00;;;;;;;33.80;21.77;;;9.70;99.90;;;;;;6097792;23;20456;-68
2021/05/02 01:05:29;;;;;;;39.00;22.30;;;9.70;99.90;;;;;;6088753;23;20476;-69
2021/05/02 01:07:56;;;;;;;31.60;22.03;;;9.70;99.90;;;;;;6088704;23;20520;-69
2021/05/02 01:10:24;;;;;;;33.87;22.77;;;9.70;99.90;;;;;;6088878;23;20421;-70
2021/05/02 01:12:54;;;;;;;30.43;22.07;;;9.70;99.90;;;;;;6099554;23;20463;-69
2021/05/02 01:15:24;;;;;;;33.17;22.90;;;9.70;99.90;;;;;;6100472;23;20445;-69
2021/05/02 01:17:55;;;;;;;32.13;23.10;;;9.70;99.90;;;;;;6090502;23;20412;-70
2021/05/02 01:20:23;;;;;;;30.07;22.03;;;9.70;99.90;;;;;;6100469;23;20409;-70
2021/05/02 01:22:58;;;;;;;33.03;21.77;;;9.70;99.90;;;;;;6091046;23;20492;-69
2021/05/02 01:25:26;;;;;;;30.47;22.40;;;9.70;99.90;;;;;;6089887;23;20421;-69
2021/05/02 01:27:53;;;;;;;31.43;22.87;;;9.70;99.90;;;;;;6089673;23;20567;-69
2021/05/02 01:30:22;;;;;;;31.57;22.30;;;9.70;99.90;;;;;;6088434;23;20416;-67
2021/05/02 01:32:49;;;;;;;33.87;23.70;;;9.70;99.90;;;;;;6097125;23;20393;-69
2021/05/02 01:35:15;;;;;;;32.20;23.37;;;9.70;99.90;;;;;;6088404;23;20426;-69
2021/05/02 01:37:41;;;;;;;35.77;23.77;;;9.70;99.90;;;;;;6088970;23;20412;-69
2021/05/02 01:40:09;;;;;;;31.00;20.73;;;9.70;99.90;;;;;;6089611;23;20724;-69
2021/05/02 01:42:36;;;;;;;32.73;22.00;;;9.60;99.90;;;;;;6088173;23;20417;-69
2021/05/02 01:45:03;;;;;;;33.40;23.30;;;9.60;99.90;;;;;;6096817;23;20408;-69
2021/05/02 01:47:31;;;;;;;35.50;23.13;;;9.60;99.90;;;;;;6087634;23;20479;-69
2021/05/02 01:50:02;;;;;;;33.40;22.37;;;9.60;99.90;;;;;;6087301;23;20503;-69
2021/05/02 01:52:48;;;;;;;34.63;22.67;;;9.60;99.90;;;;;;6087261;23;20471;-69
2021/05/02 01:55:16;;;;;;;34.57;22.90;;;9.60;99.90;;;;;;6086221;23;20401;-69
2021/05/02 01:57:45;;;;;;;33.63;23.83;;;9.60;99.90;;;;;;6086348;23;20416;-69
2021/05/02 02:00:26;;;;;;;36.27;24.17;;;9.50;99.90;;;;;;6087940;23;20416;-70
2021/05/02 02:02:52;;;;;;;38.37;23.80;;;9.50;99.90;;;;;;6088241;23;20404;-69
2021/05/02 02:05:23;;;;;;;32.97;23.20;;;9.50;99.90;;;;;;6087345;23;20420;-70
2021/05/02 02:07:49;;;;;;;35.37;22.37;;;9.50;99.90;;;;;;6088268;23;20737;-68
2021/05/02 02:10:17;;;;;;;38.77;25.47;;;9.50;99.90;;;;;;6087664;23;20431;-69
2021/05/02 02:12:45;;;;;;;35.60;22.90;;;9.50;99.90;;;;;;6088725;23;20524;-68
2021/05/02 02:15:12;;;;;;;38.50;24.57;;;9.50;99.90;;;;;;6087896;23;20692;-68
2021/05/02 02:17:39;;;;;;;39.33;23.40;;;9.50;99.90;;;;;;6088770;23;20422;-69
2021/05/02 02:20:06;;;;;;;34.73;23.83;;;9.50;99.90;;;;;;6090269;23;20427;-68
2021/05/02 02:22:36;;;;;;;36.87;24.60;;;9.50;99.90;;;;;;6090042;23;20421;-69
2021/05/02 02:25:05;;;;;;;37.10;24.20;;;9.50;99.90;;;;;;6089269;23;20428;-69
2021/05/02 02:27:32;;;;;;;34.10;22.53;;;9.50;99.90;;;;;;6099187;23;20412;-69
2021/05/02 02:30:01;;;;;;;37.90;24.90;;;9.50;99.90;;;;;;6090147;23;20480;-69
2021/05/02 02:32:28;;;;;;;37.87;24.80;;;9.50;99.90;;;;;;6090347;23;20444;-69
2021/05/02 02:34:56;;;;;;;32.27;22.10;;;9.40;99.90;;;;;;6099161;23;20401;-69
2021/05/02 02:37:24;;;;;;;38.23;24.20;;;9.40;99.90;;;;;;6090141;23;20416;-69
2021/05/02 02:39:52;;;;;;;33.80;23.03;;;9.40;99.90;;;;;;6090313;23;20400;-69
2021/05/02 02:42:20;;;;;;;35.37;24.27;;;9.40;99.90;;;;;;6089623;23;20480;-69
2021/05/02 02:44:48;;;;;;;35.37;24.47;;;9.40;99.90;;;;;;6091031;23;20427;-69
2021/05/02 02:47:18;;;;;;;34.53;22.67;;;9.40;99.90;;;;;;6089691;23;20460;-69
2021/05/02 02:49:47;;;;;;;32.40;22.97;;;9.40;99.90;;;;;;6101083;23;20392;-68
2021/05/02 02:52:18;;;;;;;33.40;22.50;;;9.40;99.90;;;;;;6101286;23;20377;-69
2021/05/02 02:54:49;;;;;;;36.30;24.50;;;9.40;99.90;;;;;;6090437;23;20401;-69
2021/05/02 02:57:20;;;;;;;36.33;23.67;;;9.40;99.90;;;;;;6090814;23;20397;-69
2021/05/02 02:59:52;;;;;;;30.33;22.60;;;9.40;99.90;;;;;;6090954;23;20432;-69
2021/05/02 03:02:20;;;;;;;31.97;22.70;;;9.40;99.90;;;;;;6101390;23;20491;-69
2021/05/02 03:04:51;;;;;;;39.27;24.80;;;9.40;99.90;;;;;;6092626;23;20407;-69
2021/05/02 03:07:19;;;;;;;39.33;23.30;;;9.40;99.90;;;;;;6092041;23;20412;-70
2021/05/02 03:09:49;;;;;;;33.87;23.03;;;9.40;99.90;;;;;;6101414;23;20413;-69
2021/05/02 03:12:18;;;;;;;38.13;25.47;;;9.40;99.90;;;;;;6092116;23;20422;-69
2021/05/02 03:14:46;;;;;;;35.67;22.90;;;9.40;99.90;;;;;;6091624;23;20696;-69
2021/05/02 03:17:15;;;;;;;34.43;23.70;;;9.30;99.90;;;;;;6091201;23;20485;-69
2021/05/02 03:19:47;;;;;;;35.17;22.93;;;9.30;99.90;;;;;;6091767;23;20495;-69
2021/05/02 03:22:19;;;;;;;37.80;23.60;;;9.40;99.90;;;;;;6090887;23;20470;-69
2021/05/02 03:24:49;;;;;;;34.63;22.57;;;9.40;99.90;;;;;;6091587;23;20491;-69
2021/05/02 03:27:19;;;;;;;37.73;22.87;;;9.40;99.90;;;;;;6065774;23;20856;-69
2021/05/02 03:29:48;;;;;;;33.00;23.90;;;9.40;99.90;;;;;;6090903;23;20471;-69
2021/05/02 03:32:15;;;;;;;32.80;22.37;;;9.40;99.90;;;;;;6091817;23;20436;-69
2021/05/02 03:34:43;;;;;;;34.17;23.00;;;9.40;99.90;;;;;;6091780;23;20430;-69
2021/05/02 03:37:11;;;;;;;36.00;22.40;;;9.30;99.90;;;;;;6090964;23;20424;-70
2021/05/02 03:39:38;;;;;;;35.70;22.80;;;9.30;99.90;;;;;;6088065;23;20475;-69
2021/05/02 03:42:04;;;;;;;34.93;23.23;;;9.30;99.90;;;;;;6087385;23;20417;-69
2021/05/02 03:44:30;;;;;;;36.83;23.17;;;9.30;99.90;;;;;;6091606;23;20435;-69
2021/05/02 03:46:57;;;;;;;37.40;25.00;;;9.30;99.90;;;;;;6090424;23;20417;-69
2021/05/02 03:49:23;;;;;;;37.80;24.87;;;9.30;99.90;;;;;;6090644;23;20546;-69
2021/05/02 03:51:50;;;;;;;33.00;22.13;;;9.30;99.90;;;;;;6091374;23;20420;-68
2021/05/02 03:54:17;;;;;;;35.67;23.87;;;9.30;99.90;;;;;;6101269;23;20449;-69
2021/05/02 03:56:45;;;;;;;34.93;23.53;;;9.30;99.90;;;;;;6091564;23;20447;-69
2021/05/02 03:59:13;;;;;;;33.83;22.10;;;9.30;99.90;;;;;;6090154;23;20483;-69
2021/05/02 04:01:44;;;;;;;36.10;23.57;;;9.30;99.90;;;;;;6090573;23;20484;-69
2021/05/02 04:04:12;;;;;;;36.17;23.70;;;9.20;99.90;;;;;;6100148;23;20456;-69
2021/05/02 04:06:38;;;;;;;34.33;22.73;;;9.20;99.90;;;;;;6090677;23;20421;-69
2021/05/02 04:09:07;;;;;;;34.20;22.50;;;9.20;99.90;;;;;;6087516;23;20444;-69
2021/05/02 04:11:33;;;;;;;36.77;24.00;;;9.20;99.90;;;;;;6087498;23;20420;-69
2021/05/02 04:14:03;;;;;;;36.90;24.30;;;9.20;99.90;;;;;;6088804;23;20416;-69
2021/05/02 04:16:29;;;;;;;38.33;23.53;;;9.20;99.90;;;;;;6086188;23;20448;-69
2021/05/02 04:18:56;;;;;;;36.77;23.13;;;9.20;99.90;;;;;;6087791;23;20417;-69
2021/05/02 04:21:22;;;;;;;35.80;24.17;;;9.20;99.90;;;;;;6090512;23;20416;-69
2021/05/02 04:23:52;;;;;;;37.87;24.77;;;9.20;99.90;;;;;;6090548;23;20444;-69
2021/05/02 04:26:19;;;;;;;34.47;23.33;;;9.20;99.90;;;;;;6090821;23;20416;-69
2021/05/02 04:28:45;;;;;;;37.97;24.90;;;9.20;99.90;;;;;;6090140;23;20440;-69
2021/05/02 04:31:12;;;;;;;35.27;24.07;;;9.20;99.90;;;;;;6100202;23;20512;-69
2021/05/02 04:33:38;;;;;;;34.97;23.57;;;9.30;99.90;;;;;;6086337;23;20488;-69
2021/05/02 04:36:06;;;;;;;35.70;24.70;;;9.20;99.90;;;;;;6084525;23;20417;-68
2021/05/02 04:38:32;;;;;;;36.40;24.70;;;9.30;99.90;;;;;;6090114;23;20491;-69
2021/05/02 04:40:58;;;;;;;35.20;23.90;;;9.30;99.90;;;;;;6090558;23;20404;-69
2021/05/02 04:43:25;;;;;;;38.93;23.07;;;9.30;99.90;;;;;;6091213;23;20498;-70
2021/05/02 04:45:52;;;;;;;30.83;21.73;;;9.30;99.90;;;;;;6091254;23;20416;-69
2021/05/02 04:48:18;;;;;;;38.27;23.33;;;9.30;99.90;;;;;;6090299;23;20448;-68
2021/05/02 04:50:45;;;;;;;36.37;23.27;;;9.30;99.90;;;;;;6090767;23;20412;-68
2021/05/02 04:53:11;;;;;;;36.07;23.00;;;9.30;99.90;;;;;;6100412;23;20424;-69
2021/05/02 04:55:37;;;;;;;36.30;23.37;;;9.30;99.90;;;;;;6091009;23;20421;-68
2021/05/02 04:58:08;;;;;;;38.00;24.27;;;9.30;99.90;;;;;;6091038;23;20496;-70
2021/05/02 05:00:35;;;;;;;38.20;22.80;;;9.30;99.90;;;;;;6090582;23;20408;-68
2021/05/02 05:03:02;;;;;;;39.20;24.00;;;9.30;99.90;;;;;;6090928;23;20416;-69
2021/05/02 05:05:28;;;;;;;36.57;23.20;;;9.40;99.90;;;;;;6090299;23;20416;-68
2021/05/02 05:07:54;;;;;;;32.20;22.47;;;9.40;99.90;;;;;;6090398;23;20448;-69
2021/05/02 05:10:21;;;;;;;34.30;22.13;;;9.40;99.90;;;;;;6090037;23;20507;-69
2021/05/02 05:12:47;;;;;;;35.37;21.70;;;9.40;99.90;;;;;;6088208;23;20450;-69
2021/05/02 05:15:13;;;;;;;31.40;22.40;;;9.50;99.90;;;;;;6082727;23;20416;-68
2021/05/02 05:17:40;;;;;;;34.53;23.37;;;9.50;99.90;;;;;;6090211;23;20495;-69
2021/05/02 05:20:08;;;;;;;31.70;21.97;;;9.60;99.90;;;;;;6090491;23;20451;-70
2021/05/02 05:22:34;;;;;;;36.63;23.83;;;9.60;99.90;;;;;;6090992;23;20535;-69
2021/05/02 05:25:01;;;;;;;34.20;22.47;;;9.60;99.90;;;;;;6090586;23;20420;-69
2021/05/02 05:27:28;;;;;;;33.30;22.00;;;9.60;99.90;;;;;;6090423;23;20488;-68
2021/05/02 05:29:54;;;;;;;35.70;23.40;;;9.50;99.90;;;;;;6089438;23;20444;-69
2021/05/02 05:32:21;;;;;;;35.93;22.97;;;9.50;99.90;;;;;;6087990;23;20471;-69
2021/05/02 05:34:48;;;;;;;31.20;22.03;;;9.50;99.90;;;;;;6098607;23;20408;-69
2021/05/02 05:37:14;;;;;;;28.57;20.30;;;9.50;99.90;;;;;;6089186;23;20421;-69
2021/05/02 05:39:40;;;;;;;34.83;21.87;;;9.60;99.90;;;;;;6089291;23;20412;-70
2021/05/02 05:42:07;;;;;;;31.30;20.30;;;9.60;99.90;;;;;;6088459;23;20424;-69
2021/05/02 05:44:33;;;;;;;33.20;22.57;;;9.60;99.90;;;;;;6086896;23;20416;-69
2021/05/02 05:47:00;;;;;;;33.80;22.23;;;9.60;99.90;;;;;;6085153;23;20507;-69
2021/05/02 05:49:26;;;;;;;32.70;22.70;;;9.60;99.90;;;;;;6085931;23;20444;-69
2021/05/02 05:51:53;;;;;;;31.90;20.27;;;9.60;99.90;;;;;;6085243;23;20910;-69
2021/05/02 05:54:20;;;;;;;30.03;20.83;;;9.70;99.90;;;;;;6085990;23;20420;-69
2021/05/02 05:56:46;;;;;;;33.90;21.10;;;9.70;99.90;;;;;;6085427;23;20420;-69
2021/05/02 05:59:16;;;;;;;31.57;22.00;;;9.70;99.90;;;;;;6086662;23;20412;-69
2021/05/02 06:01:45;;;;;;;32.33;21.10;;;9.70;99.90;;;;;;6087861;23;20882;-69
2021/05/02 06:04:11;;;;;;;30.33;20.70;;;9.70;99.90;;;;;;6087561;23;20416;-69
2021/05/02 06:06:38;;;;;;;29.83;20.97;;;9.80;99.90;;;;;;6087806;23;20416;-69
2021/05/02 06:09:07;;;;;;;30.40;20.97;;;9.80;99.90;;;;;;6087136;23;20783;-69
2021/05/02 06:11:34;;;;;;;30.03;21.50;;;9.90;99.90;;;;;;6088249;23;20484;-69
2021/05/02 06:14:01;;;;;;;26.93;20.40;;;9.90;99.90;;;;;;6088693;23;20804;-68
2021/05/02 06:16:28;;;;;;;30.77;21.63;;;9.90;99.90;;;;;;6088032;23;20890;-69
2021/05/02 06:18:54;;;;;;;28.30;19.20;;;9.90;99.90;;;;;;6089707;23;20464;-70
2021/05/02 06:21:21;;;;;;;29.40;20.60;;;10.00;99.90;;;;;;6099242;23;20494;-70
2021/05/02 06:23:48;;;;;;;28.43;19.87;;;10.00;99.90;;;;;;6088844;23;20430;-68
2021/05/02 06:26:18;;;;;;;27.87;20.40;;;10.00;99.90;;;;;;6089277;23;20507;-69
2021/05/02 06:28:44;;;;;;;27.97;21.10;;;10.00;99.90;;;;;;6098629;23;20488;-68
2021/05/02 06:31:11;;;;;;;29.40;21.00;;;10.00;99.90;;;;;;6089329;23;20462;-69
2021/05/02 06:33:37;;;;;;;30.30;20.67;;;10.00;99.90;;;;;;6099041;23;20408;-69
2021/05/02 06:36:05;;;;;;;30.50;20.43;;;10.00;99.90;;;;;;6089449;23;20504;-69
2021/05/02 06:38:31;;;;;;;27.60;20.23;;;10.00;99.90;;;;;;6089168;23;20427;-69
2021/05/02 06:40:57;;;;;;;31.10;20.60;;;10.00;99.90;;;;;;6089249;23;20420;-69
2021/05/02 06:43:25;;;;;;;26.13;19.27;;;10.00;99.90;;;;;;6089037;23;20412;-69
2021/05/02 06:45:51;;;;;;;28.53;20.73;;;9.90;99.90;;;;;;6089002;23;20432;-68
2021/05/02 06:48:17;;;;;;;27.87;19.30;;;10.00;99.90;;;;;;6089722;23;20475;-69
2021/05/02 06:50:44;;;;;;;25.20;18.53;;;10.00;99.90;;;;;;6089504;23;20413;-69
2021/05/02 06:53:12;;;;;;;31.70;19.90;;;10.00;99.90;;;;;;6089446;23;20416;-69
2021/05/02 06:55:38;;;;;;;27.90;18.90;;;10.00;99.90;;;;;;6099307;23;20416;-69
2021/05/02 06:58:05;;;;;;;27.27;18.43;;;10.00;99.90;;;;;;6089446;23;20413;-69
2021/05/02 07:00:32;;;;;;;30.30;20.27;;;10.00;99.90;;;;;;6089579;23;20484;-69
2021/05/02 07:02:58;;;;;;;27.40;20.10;;;10.00;99.90;;;;;;6090426;23;20424;-70
2021/05/02 07:05:24;;;;;;;26.83;19.13;;;10.10;99.90;;;;;;6091241;23;20488;-69
2021/05/02 07:07:52;;;;;;;24.83;18.80;;;10.10;99.90;;;;;;6091590;23;20421;-69
2021/05/02 07:10:18;;;;;;;30.17;20.33;;;10.10;99.90;;;;;;6091715;23;20417;-69
2021/05/02 07:12:44;;;;;;;26.83;18.50;;;10.10;99.90;;;;;;6092128;23;20424;-69
2021/05/02 07:15:12;;;;;;;27.70;18.57;;;10.20;99.90;;;;;;6091554;23;20448;-69
2021/05/02 07:17:40;;;;;;;23.13;16.93;;;10.20;99.90;;;;;;6091570;23;20447;-69
2021/05/02 07:20:09;;;;;;;25.97;17.60;;;10.20;99.90;;;;;;6102019;23;20738;-69
2021/05/02 07:22:35;;;;;;;25.20;18.23;;;10.30;99.90;;;;;;6091662;23;20417;-68
2021/05/02 07:25:02;;;;;;;20.80;17.80;;;10.30;99.90;;;;;;6091314;23;20425;-68
2021/05/02 07:27:28;;;;;;;24.17;17.40;;;10.30;99.90;;;;;;6090782;23;20557;-69
2021/05/02 07:29:55;;;;;;;21.60;16.23;;;10.30;99.90;;;;;;6090232;23;20512;-69
2021/05/02 07:32:21;;;;;;;25.63;18.93;;;10.30;99.90;;;;;;6091578;23;20471;-69
2021/05/02 07:34:48;;;;;;;24.43;17.87;;;10.30;99.90;;;;;;6090610;23;20417;-69
2021/05/02 07:37:14;;;;;;;23.73;16.67;;;10.40;99.90;;;;;;6090183;23;20435;-69
2021/05/02 07:39:41;;;;;;;25.80;16.97;;;10.50;99.90;;;;;;6090784;23;20416;-69
2021/05/02 07:42:08;;;;;;;19.70;15.70;;;10.50;99.90;;;;;;6086866;23;20435;-68
2021/05/02 07:44:34;;;;;;;21.40;17.00;;;10.50;99.90;;;;;;6090489;23;20417;-69
2021/05/02 07:47:00;;;;;;;23.43;16.37;;;10.50;99.90;;;;;;6089796;23;20447;-69
2021/05/02 07:49:26;;;;;;;19.63;17.10;;;10.50;99.90;;;;;;6085361;23;20936;-66
2021/05/02 07:51:54;;;;;;;21.60;17.30;;;10.50;99.90;;;;;;6072506;23;20416;-66
2021/05/02 07:54:23;;;;;;;22.40;17.30;;;10.50;99.90;;;;;;6072073;23;20428;-66
2021/05/02 07:56:49;;;;;;;20.83;16.43;;;10.50;99.90;;;;;;6072403;23;20431;-65
2021/05/02 07:59:16;;;;;;;21.87;17.80;;;10.60;99.90;;;;;;6072863;23;20424;-66
2021/05/02 08:01:42;;;;;;;21.87;17.43;;;10.60;99.90;;;;;;6085424;23;20424;-67
2021/05/02 08:04:08;;;;;;;21.47;16.50;;;10.60;99.90;;;;;;6072556;23;20424;-67
2021/05/02 08:06:34;;;;;;;25.20;18.37;;;10.60;99.90;;;;;;6072148;23;20504;-67
2021/05/02 08:09:02;;;;;;;24.67;17.20;;;10.60;99.90;;;;;;6071813;23;20509;-67
2021/05/02 08:11:30;;;;;;;21.90;17.10;;;10.60;99.90;;;;;;6072755;23;20420;-67
2021/05/02 08:13:56;;;;;;;25.20;18.10;;;10.60;99.90;;;;;;6072706;23;20679;-66
2021/05/02 08:16:22;;;;;;;25.00;18.50;;;10.60;99.90;;;;;;6073029;23;20894;-70
2021/05/02 08:18:49;;;;;;;24.40;19.57;;;10.60;99.90;;;;;;6083900;23;20427;-68
2021/05/02 08:21:17;;;;;;;22.60;17.50;;;10.60;99.90;;;;;;6093688;23;20466;-69
2021/05/02 08:23:43;;;;;;;25.87;18.23;;;10.50;99.90;;;;;;6076485;23;20448;-66
2021/05/02 08:26:10;;;;;;;27.53;19.23;;;10.50;99.90;;;;;;6073806;23;20425;-67
2021/05/02 08:28:37;;;;;;;25.00;18.67;;;10.50;99.90;;;;;;6072771;23;20440;-67
2021/05/02 08:31:03;;;;;;;28.37;21.87;;;10.50;99.90;;;;;;6071725;23;20507;-66
2021/05/02 08:33:30;;;;;;;24.50;18.67;;;10.50;99.90;;;;;;6071698;23;20720;-67
2021/05/02 08:35:56;;;;;;;27.80;20.13;;;10.50;99.90;;;;;;6080957;23;20478;-68
2021/05/02 08:38:24;;;;;;;25.67;19.87;;;10.50;99.90;;;;;;6071896;23;20424;-67
2021/05/02 08:40:50;;;;;;;24.13;19.60;;;10.60;99.90;;;;;;6071996;23;20420;-67
2021/05/02 08:43:19;;;;;;;25.17;19.17;;;10.60;99.90;;;;;;6071744;23;20434;-66
2021/05/02 08:45:45;;;;;;;23.33;18.57;;;10.70;99.90;;;;;;6072180;23;20420;-68
2021/05/02 08:48:11;;;;;;;26.40;20.13;;;10.80;99.90;;;;;;6071305;23;20455;-68
2021/05/02 08:50:38;;;;;;;23.57;18.27;;;10.90;99.90;;;;;;6072022;23;20707;-67
2021/05/02 08:53:06;;;;;;;24.30;18.80;;;11.00;99.90;;;;;;6081475;23;20476;-67
2021/05/02 08:55:32;;;;;;;26.13;20.20;;;11.00;99.90;;;;;;6071548;23;20424;-68
2021/05/02 08:57:58;;;;;;;36.90;23.20;;;11.00;99.90;;;;;;6071734;23;20420;-67
2021/05/02 09:00:26;;;;;;;38.07;24.53;;;11.10;99.90;;;;;;6072161;23;20431;-69
2021/05/02 09:02:54;;;;;;;25.03;19.73;;;11.10;99.90;;;;;;6071863;23;20678;-70
2021/05/02 09:05:21;;;;;;;27.53;20.47;;;11.10;99.90;;;;;;6071807;23;20420;-67
2021/05/02 09:07:47;;;;;;;28.87;19.20;;;11.20;99.90;;;;;;6071894;23;20447;-68
2021/05/02 09:10:15;;;;;;;27.97;19.93;;;11.20;99.90;;;;;;6071540;23;20444;-67
2021/05/02 09:12:43;;;;;;;26.37;20.33;;;11.20;99.90;;;;;;6072067;23;20439;-68
2021/05/02 09:15:17;;;;;;;30.00;20.97;;;11.20;99.90;;;;;;6071675;23;20428;-67
2021/05/02 09:17:54;;;;;;;29.93;21.40;;;11.20;99.90;;;;;;6072657;23;20416;-67
2021/05/02 09:20:40;;;;;;;28.40;20.87;;;11.20;99.90;;;;;;6071433;23;20463;-68
2021/05/02 09:23:06;;;;;;;28.40;20.07;;;11.10;99.90;;;;;;6071359;23;20428;-67
2021/05/02 09:25:49;;;;;;;30.77;21.70;;;11.10;99.90;;;;;;6071477;23;20770;-67
2021/05/02 09:28:15;;;;;;;27.17;20.63;;;11.10;99.90;;;;;;6071459;23;20538;-67
2021/05/02 09:30:41;;;;;;;30.37;21.27;;;11.10;99.90;;;;;;6070665;23;20444;-69
2021/05/02 09:33:08;;;;;;;24.53;19.23;;;11.20;99.90;;;;;;6071959;23;20405;-67
2021/05/02 09:35:38;;;;;;;27.20;20.13;;;11.20;99.90;;;;;;6072520;23;20420;-68
2021/05/02 09:38:11;;;;;;;25.90;19.17;;;11.30;99.90;;;;;;6071390;23;20886;-68
2021/05/02 09:40:49;;;;;;;27.70;21.53;;;11.30;99.90;;;;;;6071633;23;20420;-66
2021/05/02 09:43:37;;;;;;;27.70;20.30;;;11.40;99.90;;;;;;6071793;23;20854;-67
2021/05/02 09:46:23;;;;;;;26.43;20.13;;;11.50;99.90;;;;;;6071784;23;20417;-68
2021/05/02 09:48:55;;;;;;;27.67;19.70;;;11.60;99.90;;;;;;6072065;23;20439;-68
2021/05/02 09:51:25;;;;;;;24.43;19.60;;;11.60;99.90;;;;;;6075003;23;20405;-69
2021/05/02 09:54:08;;;;;;;24.87;18.97;;;11.70;99.90;;;;;;6098293;23;20420;-69
2021/05/02 09:56:37;;;;;;;22.97;18.23;;;11.80;99.90;;;;;;6089106;23;20404;-70
2021/05/02 09:59:04;;;;;;;23.77;17.60;;;11.80;99.90;;;;;;6087866;23;20426;-69
2021/05/02 10:01:31;;;;;;;23.63;17.67;;;11.90;99.90;;;;;;6095828;23;20515;-70
2021/05/02 10:04:00;;;;;;;23.00;17.80;;;11.90;99.90;;;;;;6087540;23;20420;-70
2021/05/02 10:06:35;;;;;;;21.03;17.23;;;11.90;99.90;;;;;;6096574;23;20412;-70
2021/05/02 10:09:06;;;;;;;23.73;17.43;;;11.90;99.90;;;;;;6085917;23;20455;-69
2021/05/02 10:11:33;;;;;;;21.63;16.60;;;11.90;99.90;;;;;;6086065;23;20401;-70
2021/05/02 10:14:02;;;;;;;20.30;15.80;;;11.90;99.90;;;;;;6087618;23;20455;-69
2021/05/02 10:16:29;;;;;;;22.20;17.17;;;11.90;99.90;;;;;;6096596;23;20472;-70
2021/05/02 10:18:56;;;;;;;20.60;16.23;;;12.00;99.90;;;;;;6085207;23;20436;-69
2021/05/02 10:21:24;;;;;;;21.47;16.90;;;12.10;99.90;;;;;;6085254;23;20494;-69
2021/05/02 10:23:50;;;;;;;21.27;16.30;;;12.20;99.90;;;;;;6084296;23;20431;-69
2021/05/02 10:26:17;;;;;;;20.90;17.23;;;12.30;99.90;;;;;;6085595;23;20527;-70
2021/05/02 10:28:47;;;;;;;24.63;16.90;;;12.40;99.90;;;;;;6094854;23;20906;-69
2021/05/02 10:31:15;;;;;;;22.83;16.97;;;12.40;99.90;;;;;;6085043;23;20436;-68
2021/05/02 10:33:42;;;;;;;19.77;16.93;;;12.50;99.90;;;;;;6074682;23;20420;-69
2021/05/02 10:36:11;;;;;;;20.30;16.23;;;12.50;99.90;;;;;;6071273;23;20441;-68
2021/05/02 10:38:49;;;;;;;18.83;16.20;;;12.50;99.90;;;;;;6081501;23;20503;-69
2021/05/02 10:41:28;;;;;;;19.77;14.53;;;12.60;99.90;;;;;;6073260;23;20424;-68
2021/05/02 10:43:56;;;;;;;19.30;15.40;;;12.70;99.90;;;;;;6087686;23;20408;-69
2021/05/02 10:46:45;;;;;;;20.00;15.30;;;12.70;99.90;;;;;;6086585;23;20430;-69
2021/05/02 10:49:32;;;;;;;19.60;15.37;;;12.80;99.90;;;;;;6095761;23;20891;-69
2021/05/02 10:52:30;;;;;;;18.47;15.17;;;12.80;99.90;;;;;;6086705;23;20451;-70
2021/05/02 10:55:21;;;;;;;18.10;15.00;;;12.90;99.90;;;;;;6094493;23;20415;-70
2021/05/02 10:58:02;;;;;;;20.47;15.53;;;13.00;99.90;;;;;;6084254;23;20459;-71
2021/05/02 11:00:47;;;;;;;18.60;15.30;;;13.10;99.90;;;;;;6084458;23;20400;-70
2021/05/02 11:03:51;;;;;;;17.90;14.80;;;13.10;99.90;;;;;;6093850;23;20424;-71
2021/05/02 11:06:52;;;;;;;17.73;14.67;;;13.10;99.90;;;;;;6085770;23;20467;-71
2021/05/02 11:09:21;;;;;;;20.63;15.20;;;13.00;99.90;;;;;;6083631;23;20759;-70
2021/05/02 11:11:50;;;;;;;19.37;15.27;;;13.00;99.90;;;;;;6077131;23;20424;-69
2021/05/02 11:14:35;;;;;;;16.63;14.03;;;13.00;99.90;;;;;;6076311;23;20712;-67
2021/05/02 11:17:25;;;;;;;16.60;14.70;;;12.90;99.90;;;;;;6073921;23;20420;-68
2021/05/02 11:19:54;;;;;;;18.90;15.07;;;12.90;99.90;;;;;;6073547;23;20448;-70
2021/05/02 11:22:21;;;;;;;16.37;14.00;;;12.90;99.90;;;;;;6072926;23;20424;-68
2021/05/02 11:25:08;;;;;;;18.63;14.80;;;12.80;99.90;;;;;;6073300;23;20420;-69
2021/05/02 11:27:59;;;;;;;16.73;14.40;;;12.90;99.90;;;;;;6072957;23;20427;-69
2021/05/02 11:30:26;;;;;;;16.33;13.57;;;12.80;99.90;;;;;;6072532;23;20752;-69
2021/05/02 11:32:55;;;;;;;19.80;14.77;;;12.90;99.90;;;;;;6071815;23;20870;-69
2021/05/02 11:35:52;;;;;;;16.00;13.10;;;12.90;99.90;;;;;;6074797;23;20430;-70
2021/05/02 11:38:46;;;;;;;13.87;12.10;;;13.00;99.90;;;;;;6073153;23;20512;-69
2021/05/02 11:41:14;;;;;;;13.97;12.10;;;13.10;99.90;;;;;;6073253;23;20428;-69
2021/05/02 11:43:42;;;;;;;16.33;13.87;;;13.10;99.90;;;;;;6074015;23;20480;-69
2021/05/02 11:46:17;;;;;;;17.20;14.37;;;13.10;99.90;;;;;;6073292;23;20426;-70
2021/05/02 11:48:44;;;;;;;15.87;13.50;;;13.10;99.90;;;;;;6071783;23;20438;-70
2021/05/02 11:51:17;;;;;;;16.33;14.40;;;13.00;99.90;;;;;;6072728;23;20420;-70
2021/05/02 11:53:46;;;;;;;17.93;14.60;;;12.90;99.90;;;;;;6071936;23;20405;-70
2021/05/02 11:56:19;;;;;;;17.90;13.57;;;12.80;99.90;;;;;;6072274;23;20421;-68
2021/05/02 11:58:47;;;;;;;17.73;13.73;;;12.80;99.90;;;;;;6073073;23;20891;-70
2021/05/02 12:01:16;;;;;;;16.77;13.50;;;12.60;99.90;;;;;;6082122;23;20431;-72
2021/05/02 12:03:45;;;;;;;17.00;14.23;;;12.50;99.90;;;;;;6092940;23;20733;-71
2021/05/02 12:06:21;;;;;;;19.50;15.70;;;12.50;99.90;;;;;;6081854;23;20428;-70
2021/05/02 12:08:47;;;;;;;21.17;14.97;;;12.50;99.90;;;;;;6080105;23;20460;-70
2021/05/02 12:11:13;;;;;;;21.83;15.53;;;12.50;99.90;;;;;;6081287;23;20420;-70
2021/05/02 12:13:44;;;;;;;19.67;15.77;;;12.50;99.90;;;;;;6080451;23;20421;-70
2021/05/02 12:16:12;;;;;;;19.57;15.50;;;12.60;99.90;;;;;;6080859;23;20443;-70
2021/05/02 12:18:44;;;;;;;19.43;15.10;;;12.70;99.90;;;;;;6080768;23;20416;-70
2021/05/02 12:21:13;;;;;;;19.10;14.50;;;12.70;99.90;;;;;;6080923;23;20417;-70
2021/05/02 12:23:39;;;;;;;18.90;14.13;;;12.80;99.90;;;;;;6078891;23;20420;-70
2021/05/02 12:26:10;;;;;;;18.27;14.30;;;12.80;99.90;;;;;;6078897;23;20444;-70
2021/05/02 12:28:40;;;;;;;20.10;15.97;;;12.90;99.90;;;;;;6079566;23;20455;-69
2021/05/02 12:31:10;;;;;;;19.30;15.27;;;12.90;99.90;;;;;;6079256;23;20448;-69
2021/05/02 12:33:37;;;;;;;19.83;15.03;;;12.90;99.90;;;;;;6079275;23;20713;-70
2021/05/02 12:36:05;;;;;;;17.17;14.67;;;12.90;99.90;;;;;;6079684;23;20420;-69
2021/05/02 12:38:31;;;;;;;16.30;13.03;;;12.90;99.90;;;;;;6078508;23;20423;-69
2021/05/02 12:40:58;;;;;;;19.63;14.27;;;13.00;99.90;;;;;;6078358;23;20420;-70